sensor_id;sensor_type;location;lat;lon;timestamp;pressure;altitude;pressure_sealevel;temperature;humidity
32735;BME280;19112;51.076;3.706;2023-03-04T00:01:54;102673.34;;;7.87;60.97
32735;BME280;19112;51.076;3.706;2023-03-04T00:04:20;102604.72;;;7.55;60.63
32735;BME280;19112;51.076;3.706;2023-03-04T00:06:45;102680.16;;;7.85;61.39
32735;BME280;19112;51.076;3.706;2023-03-04T00:09:14;102530.34;;;7.15;60.71
32735;BME280;19112;51.076;3.706;2023-03-04T00:11:39;102678.91;;;7.92;61.18
32735;BME280;19112;51.076;3.706;2023-03-04T00:14:05;102679.34;;;7.98;61.10
32735;BME280;19112;51.076;3.706;2023-03-04T00:16:31;102676.50;;;8.07;60.87
32735;BME280;19112;51.076;3.706;2023-03-04T00:18:57;102632.66;;;7.79;60.29
32735;BME280;19112;51.076;3.706;2023-03-04T00:21:23;102630.59;;;7.87;60.49
32735;BME280;19112;51.076;3.706;2023-03-04T00:23:49;102567.69;;;7.49;60.85
32735;BME280;19112;51.076;3.706;2023-03-04T00:26:16;102678.00;;;8.15;60.93
32735;BME280;19112;51.076;3.706;2023-03-04T00:28:43;102554.38;;;7.57;60.53
32735;BME280;19112;51.076;3.706;2023-03-04T00:31:10;102494.19;;;7.32;60.57
32735;BME280;19112;51.076;3.706;2023-03-04T00:33:36;102635.53;;;8.19;60.44
32735;BME280;19112;51.076;3.706;2023-03-04T00:36:04;102667.00;;;8.44;60.64
32735;BME280;19112;51.076;3.706;2023-03-04T00:38:36;102466.69;;;7.38;59.59
32735;BME280;19112;51.076;3.706;2023-03-04T00:41:02;102670.00;;;8.62;59.51
32735;BME280;19112;51.076;3.706;2023-03-04T00:43:27;102639.13;;;8.45;60.02
32735;BME280;19112;51.076;3.706;2023-03-04T00:45:54;102663.78;;;8.60;59.75
32735;BME280;19112;51.076;3.706;2023-03-04T00:48:22;102628.91;;;8.24;59.79
32735;BME280;19112;51.076;3.706;2023-03-04T00:50:48;102668.63;;;8.42;60.16
32735;BME280;19112;51.076;3.706;2023-03-04T00:53:16;102671.53;;;8.47;60.48
32735;BME280;19112;51.076;3.706;2023-03-04T00:55:42;102652.91;;;8.30;60.19
32735;BME280;19112;51.076;3.706;2023-03-04T00:58:08;102368.03;;;6.73;60.37
32735;BME280;19112;51.076;3.706;2023-03-04T01:00:33;102671.72;;;8.61;60.21
32735;BME280;19112;51.076;3.706;2023-03-04T01:02:59;102430.59;;;7.32;60.03
32735;BME280;19112;51.076;3.706;2023-03-04T01:05:25;102601.94;;;8.25;60.28
32735;BME280;19112;51.076;3.706;2023-03-04T01:07:51;102657.53;;;8.58;60.43
32735;BME280;19112;51.076;3.706;2023-03-04T01:10:17;102674.75;;;8.79;59.74
32735;BME280;19112;51.076;3.706;2023-03-04T01:12:43;102579.47;;;8.16;59.54
32735;BME280;19112;51.076;3.706;2023-03-04T01:15:12;102342.94;;;6.87;60.35
32735;BME280;19112;51.076;3.706;2023-03-04T01:17:38;102595.31;;;8.30;60.13
32735;BME280;19112;51.076;3.706;2023-03-04T01:20:07;102589.19;;;8.30;60.36
32735;BME280;19112;51.076;3.706;2023-03-04T01:22:33;102604.78;;;8.40;60.24
32735;BME280;19112;51.076;3.706;2023-03-04T01:24:59;102576.25;;;8.31;60.37
32735;BME280;19112;51.076;3.706;2023-03-04T01:27:24;102409.31;;;7.39;59.77
32735;BME280;19112;51.076;3.706;2023-03-04T01:29:50;102654.94;;;8.96;59.78
32735;BME280;19112;51.076;3.706;2023-03-04T01:32:16;102507.06;;;8.03;60.11
32735;BME280;19112;51.076;3.706;2023-03-04T01:34:42;102507.78;;;8.00;60.16
32735;BME280;19112;51.076;3.706;2023-03-04T01:37:08;102648.22;;;8.75;60.23
32735;BME280;19112;51.076;3.706;2023-03-04T01:39:35;102580.44;;;8.29;60.90
32735;BME280;19112;51.076;3.706;2023-03-04T01:42:00;102640.88;;;8.57;60.97
32735;BME280;19112;51.076;3.706;2023-03-04T01:44:28;102578.69;;;8.17;61.42
32735;BME280;19112;51.076;3.706;2023-03-04T01:46:54;102511.16;;;7.74;61.52
32735;BME280;19112;51.076;3.706;2023-03-04T01:49:21;102539.19;;;7.88;61.52
32735;BME280;19112;51.076;3.706;2023-03-04T01:51:52;102632.41;;;8.48;61.78
32735;BME280;19112;51.076;3.706;2023-03-04T01:54:19;102519.19;;;7.89;61.48
32735;BME280;19112;51.076;3.706;2023-03-04T01:56:47;102583.00;;;8.16;61.87
32735;BME280;19112;51.076;3.706;2023-03-04T01:59:22;102542.09;;;8.05;61.65
32735;BME280;19112;51.076;3.706;2023-03-04T02:01:51;102459.97;;;7.53;61.43
32735;BME280;19112;51.076;3.706;2023-03-04T02:04:21;102558.84;;;7.95;62.15
32735;BME280;19112;51.076;3.706;2023-03-04T02:06:49;102567.13;;;8.01;62.05
32735;BME280;19112;51.076;3.706;2023-03-04T02:09:16;102419.41;;;7.09;62.26
32735;BME280;19112;51.076;3.706;2023-03-04T02:11:44;102614.53;;;8.31;62.86
32735;BME280;19112;51.076;3.706;2023-03-04T02:14:11;102537.81;;;7.94;62.18
32735;BME280;19112;51.076;3.706;2023-03-04T02:16:38;102352.34;;;6.85;62.71
32735;BME280;19112;51.076;3.706;2023-03-04T02:19:09;102603.47;;;8.22;62.81
32735;BME280;19112;51.076;3.706;2023-03-04T02:21:38;102474.16;;;7.56;62.56
32735;BME280;19112;51.076;3.706;2023-03-04T02:26:48;102591.31;;;8.10;63.14
32735;BME280;19112;51.076;3.706;2023-03-04T02:29:16;102541.00;;;7.90;63.23
32735;BME280;19112;51.076;3.706;2023-03-04T02:31:48;102542.59;;;7.87;63.76
32735;BME280;19112;51.076;3.706;2023-03-04T02:34:18;102561.31;;;8.05;63.91
32735;BME280;19112;51.076;3.706;2023-03-04T02:36:46;102495.75;;;7.54;63.97
32735;BME280;19112;51.076;3.706;2023-03-04T02:41:48;102323.44;;;6.59;63.30
32735;BME280;19112;51.076;3.706;2023-03-04T02:44:22;102424.50;;;7.08;64.13
32735;BME280;19112;51.076;3.706;2023-03-04T02:47:00;102450.69;;;7.33;63.64
32735;BME280;19112;51.076;3.706;2023-03-04T02:49:32;102286.06;;;6.35;63.96
32735;BME280;19112;51.076;3.706;2023-03-04T02:54:39;102587.66;;;8.08;63.58
32735;BME280;19112;51.076;3.706;2023-03-04T02:57:10;102579.72;;;8.07;63.54
32735;BME280;19112;51.076;3.706;2023-03-04T02:59:40;102547.31;;;7.68;64.37
32735;BME280;19112;51.076;3.706;2023-03-04T03:02:07;102497.47;;;7.42;63.99
32735;BME280;19112;51.076;3.706;2023-03-04T03:04:35;102578.06;;;7.96;64.59
32735;BME280;19112;51.076;3.706;2023-03-04T03:07:01;102447.63;;;7.27;64.13
32735;BME280;19112;51.076;3.706;2023-03-04T03:09:27;102504.59;;;7.56;63.64
32735;BME280;19112;51.076;3.706;2023-03-04T03:11:53;102442.06;;;7.22;64.34
32735;BME280;19112;51.076;3.706;2023-03-04T03:14:19;102420.22;;;7.08;63.91
32735;BME280;19112;51.076;3.706;2023-03-04T03:16:51;102575.81;;;7.88;64.59
32735;BME280;19112;51.076;3.706;2023-03-04T03:19:17;102580.25;;;7.90;64.15
32735;BME280;19112;51.076;3.706;2023-03-04T03:21:43;102575.81;;;7.88;64.62
32735;BME280;19112;51.076;3.706;2023-03-04T03:24:09;102571.69;;;7.92;63.89
32735;BME280;19112;51.076;3.706;2023-03-04T03:26:35;102571.59;;;7.91;63.84
32735;BME280;19112;51.076;3.706;2023-03-04T03:29:02;102497.13;;;7.49;64.41
32735;BME280;19112;51.076;3.706;2023-03-04T03:31:28;102340.59;;;6.67;64.33
32735;BME280;19112;51.076;3.706;2023-03-04T03:33:54;102463.75;;;7.33;64.19
32735;BME280;19112;51.076;3.706;2023-03-04T03:36:23;102190.13;;;5.84;64.33
32735;BME280;19112;51.076;3.706;2023-03-04T03:38:51;102577.09;;;8.07;64.10
32735;BME280;19112;51.076;3.706;2023-03-04T03:41:19;102579.03;;;8.09;63.98
32735;BME280;19112;51.076;3.706;2023-03-04T03:43:46;102519.47;;;7.69;63.98
32735;BME280;19112;51.076;3.706;2023-03-04T03:46:13;102545.13;;;7.74;64.22
32735;BME280;19112;51.076;3.706;2023-03-04T03:48:38;102561.78;;;7.88;64.27
32735;BME280;19112;51.076;3.706;2023-03-04T03:51:04;102436.19;;;7.13;64.62
32735;BME280;19112;51.076;3.706;2023-03-04T03:53:31;102593.97;;;7.87;64.80
32735;BME280;19112;51.076;3.706;2023-03-04T03:55:59;102501.91;;;7.43;64.62
32735;BME280;19112;51.076;3.706;2023-03-04T03:58:25;102577.38;;;7.86;64.62
32735;BME280;19112;51.076;3.706;2023-03-04T04:00:52;102499.84;;;7.39;64.98
32735;BME280;19112;51.076;3.706;2023-03-04T04:03:17;102345.34;;;6.37;64.29
32735;BME280;19112;51.076;3.706;2023-03-04T04:05:44;102588.19;;;7.91;64.61
32735;BME280;19112;51.076;3.706;2023-03-04T04:08:13;102496.81;;;7.21;64.29
32735;BME280;19112;51.076;3.706;2023-03-04T04:10:40;102565.81;;;7.71;64.61
32735;BME280;19112;51.076;3.706;2023-03-04T04:13:06;102417.94;;;6.90;64.37
32735;BME280;19112;51.076;3.706;2023-03-04T04:15:33;102463.19;;;7.14;64.11
32735;BME280;19112;51.076;3.706;2023-03-04T04:17:59;102291.25;;;6.23;64.37
32735;BME280;19112;51.076;3.706;2023-03-04T04:20:25;102591.81;;;7.93;64.02
32735;BME280;19112;51.076;3.706;2023-03-04T04:22:51;102376.75;;;6.74;64.09
32735;BME280;19112;51.076;3.706;2023-03-04T04:25:19;102506.06;;;7.64;63.89
32735;BME280;19112;51.076;3.706;2023-03-04T04:27:45;102392.97;;;6.81;63.63
32735;BME280;19112;51.076;3.706;2023-03-04T04:30:13;102358.84;;;6.67;63.84
32735;BME280;19112;51.076;3.706;2023-03-04T04:32:42;102310.66;;;6.50;63.84
32735;BME280;19112;51.076;3.706;2023-03-04T04:35:18;102578.25;;;7.99;64.48
32735;BME280;19112;51.076;3.706;2023-03-04T04:37:48;102435.72;;;7.19;63.96
32735;BME280;19112;51.076;3.706;2023-03-04T04:40:15;102493.03;;;7.52;64.46
32735;BME280;19112;51.076;3.706;2023-03-04T04:42:55;102404.88;;;7.01;64.26
32735;BME280;19112;51.076;3.706;2023-03-04T04:45:22;102601.47;;;8.06;64.73
32735;BME280;19112;51.076;3.706;2023-03-04T04:47:54;102578.91;;;8.08;64.31
32735;BME280;19112;51.076;3.706;2023-03-04T04:50:23;102541.91;;;7.90;64.94
32735;BME280;19112;51.076;3.706;2023-03-04T04:52:49;102578.69;;;8.17;64.38
32735;BME280;19112;51.076;3.706;2023-03-04T04:55:22;102508.03;;;7.92;64.46
32735;BME280;19112;51.076;3.706;2023-03-04T04:57:49;102498.69;;;7.95;63.89
32735;BME280;19112;51.076;3.706;2023-03-04T05:00:21;102346.00;;;7.18;64.06
32735;BME280;19112;51.076;3.706;2023-03-04T05:03:02;102472.59;;;7.83;63.48
32735;BME280;19112;51.076;3.706;2023-03-04T05:05:28;102541.56;;;8.22;63.75
32735;BME280;19112;51.076;3.706;2023-03-04T05:07:56;102563.19;;;8.20;63.82
32735;BME280;19112;51.076;3.706;2023-03-04T05:10:28;102532.94;;;7.86;63.85
32735;BME280;19112;51.076;3.706;2023-03-04T05:12:54;102541.22;;;7.93;64.20
32735;BME280;19112;51.076;3.706;2023-03-04T05:15:28;102543.25;;;7.97;64.21
32735;BME280;19112;51.076;3.706;2023-03-04T05:18:00;102583.69;;;8.13;64.57
32735;BME280;19112;51.076;3.706;2023-03-04T05:20:28;102491.66;;;7.57;64.44
32735;BME280;19112;51.076;3.706;2023-03-04T05:22:54;102583.97;;;7.93;64.37
32735;BME280;19112;51.076;3.706;2023-03-04T05:25:19;102584.53;;;8.01;64.11
32735;BME280;19112;51.076;3.706;2023-03-04T05:27:51;102423.69;;;7.21;64.26
32735;BME280;19112;51.076;3.706;2023-03-04T05:30:29;102577.78;;;8.16;63.54
32735;BME280;19112;51.076;3.706;2023-03-04T05:32:55;102467.50;;;7.37;63.81
32735;BME280;19112;51.076;3.706;2023-03-04T05:35:20;102541.50;;;7.72;63.78
32735;BME280;19112;51.076;3.706;2023-03-04T05:37:46;102537.66;;;7.67;63.81
32735;BME280;19112;51.076;3.706;2023-03-04T05:40:14;102438.16;;;7.04;63.57
32735;BME280;19112;51.076;3.706;2023-03-04T05:42:40;102578.31;;;7.75;63.45
32735;BME280;19112;51.076;3.706;2023-03-04T05:45:06;102588.69;;;7.74;63.53
32735;BME280;19112;51.076;3.706;2023-03-04T05:47:38;102516.09;;;7.34;62.92
32735;BME280;19112;51.076;3.706;2023-03-04T05:50:09;102342.75;;;6.25;63.30
32735;BME280;19112;51.076;3.706;2023-03-04T05:52:35;102106.41;;;4.97;63.22
32735;BME280;19112;51.076;3.706;2023-03-04T05:55:01;102480.25;;;6.97;63.69
32735;BME280;19112;51.076;3.706;2023-03-04T05:57:27;102590.38;;;7.73;63.52
32735;BME280;19112;51.076;3.706;2023-03-04T05:59:54;102426.69;;;6.78;63.84
32735;BME280;19112;51.076;3.706;2023-03-04T06:02:21;102585.81;;;7.71;64.41
32735;BME280;19112;51.076;3.706;2023-03-04T06:04:55;102569.47;;;7.50;64.47
32735;BME280;19112;51.076;3.706;2023-03-04T06:07:26;102578.94;;;7.48;64.40
32735;BME280;19112;51.076;3.706;2023-03-04T06:09:51;102516.13;;;7.23;64.45
32735;BME280;19112;51.076;3.706;2023-03-04T06:12:18;102569.38;;;7.60;64.37
32735;BME280;19112;51.076;3.706;2023-03-04T06:14:47;102471.38;;;7.18;64.22
32735;BME280;19112;51.076;3.706;2023-03-04T06:17:26;102600.34;;;7.91;64.14
32735;BME280;19112;51.076;3.706;2023-03-04T06:19:52;102512.94;;;7.39;64.30
32735;BME280;19112;51.076;3.706;2023-03-04T06:22:17;102600.44;;;7.92;64.00
32735;BME280;19112;51.076;3.706;2023-03-04T06:24:43;102514.28;;;7.45;64.19
32735;BME280;19112;51.076;3.706;2023-03-04T06:27:11;102570.09;;;7.82;64.15
32735;BME280;19112;51.076;3.706;2023-03-04T06:29:38;102602.56;;;8.09;63.98
32735;BME280;19112;51.076;3.706;2023-03-04T06:32:04;102615.34;;;8.05;64.12
32735;BME280;19112;51.076;3.706;2023-03-04T06:34:30;102612.28;;;7.87;64.88
32735;BME280;19112;51.076;3.706;2023-03-04T06:36:59;101506.69;;;1.49;65.27
32735;BME280;19112;51.076;3.706;2023-03-04T06:39:25;102627.31;;;7.66;65.98
32735;BME280;19112;51.076;3.706;2023-03-04T06:41:51;102614.25;;;7.66;66.23
32735;BME280;19112;51.076;3.706;2023-03-04T06:44:17;102367.22;;;6.27;66.22
32735;BME280;19112;51.076;3.706;2023-03-04T06:46:42;102558.94;;;7.37;66.30
32735;BME280;19112;51.076;3.706;2023-03-04T06:49:08;102373.59;;;6.31;66.86
32735;BME280;19112;51.076;3.706;2023-03-04T06:51:35;102563.56;;;7.64;66.24
32735;BME280;19112;51.076;3.706;2023-03-04T06:54:01;102519.25;;;7.54;66.24
32735;BME280;19112;51.076;3.706;2023-03-04T06:56:27;102610.59;;;8.24;65.52
32735;BME280;19112;51.076;3.706;2023-03-04T06:58:53;102462.78;;;7.56;64.81
32735;BME280;19112;51.076;3.706;2023-03-04T07:01:23;102456.47;;;7.41;65.09
32735;BME280;19112;51.076;3.706;2023-03-04T07:03:51;102618.09;;;8.31;65.14
32735;BME280;19112;51.076;3.706;2023-03-04T07:06:22;102612.78;;;8.18;64.94
32735;BME280;19112;51.076;3.706;2023-03-04T07:08:48;102631.34;;;8.58;65.10
32735;BME280;19112;51.076;3.706;2023-03-04T07:11:15;101988.25;;;4.71;65.10
32735;BME280;19112;51.076;3.706;2023-03-04T07:13:42;102410.31;;;7.16;64.93
32735;BME280;19112;51.076;3.706;2023-03-04T07:16:14;102608.69;;;8.22;65.56
32735;BME280;19112;51.076;3.706;2023-03-04T07:18:40;102644.91;;;8.52;64.88
32735;BME280;19112;51.076;3.706;2023-03-04T07:21:13;102621.19;;;8.14;65.68
32735;BME280;19112;51.076;3.706;2023-03-04T07:23:39;102518.28;;;7.28;66.53
32735;BME280;19112;51.076;3.706;2023-03-04T07:26:06;102667.53;;;8.15;66.35
32735;BME280;19112;51.076;3.706;2023-03-04T07:28:32;102648.56;;;7.94;66.66
32735;BME280;19112;51.076;3.706;2023-03-04T07:31:30;102613.13;;;7.74;67.07
32735;BME280;19112;51.076;3.706;2023-03-04T07:34:02;102561.00;;;7.41;67.28
32735;BME280;19112;51.076;3.706;2023-03-04T07:36:29;102510.69;;;7.31;66.96
32735;BME280;19112;51.076;3.706;2023-03-04T07:38:55;102362.34;;;6.20;67.22
32735;BME280;19112;51.076;3.706;2023-03-04T07:41:23;102499.97;;;7.28;67.25
32735;BME280;19112;51.076;3.706;2023-03-04T07:43:50;102677.63;;;8.22;67.19
32735;BME280;19112;51.076;3.706;2023-03-04T07:46:17;102606.63;;;7.81;66.85
32735;BME280;19112;51.076;3.706;2023-03-04T07:48:43;102683.72;;;8.34;66.80
32735;BME280;19112;51.076;3.706;2023-03-04T07:51:14;102660.75;;;8.30;66.61
32735;BME280;19112;51.076;3.706;2023-03-04T07:53:42;102330.13;;;6.55;66.07
32735;BME280;19112;51.076;3.706;2023-03-04T07:56:18;102671.25;;;8.67;65.97
32735;BME280;19112;51.076;3.706;2023-03-04T07:58:45;102669.75;;;8.96;65.25
32735;BME280;19112;51.076;3.706;2023-03-04T08:01:31;102430.31;;;7.77;64.43
32735;BME280;19112;51.076;3.706;2023-03-04T08:03:58;102525.38;;;8.28;64.21
32735;BME280;19112;51.076;3.706;2023-03-04T08:06:25;102680.97;;;9.06;64.41
32735;BME280;19112;51.076;3.706;2023-03-04T08:09:00;102570.50;;;8.49;64.05
32735;BME280;19112;51.076;3.706;2023-03-04T08:11:28;102584.66;;;8.64;64.23
32735;BME280;19112;51.076;3.706;2023-03-04T08:13:55;102624.84;;;8.78;64.12
32735;BME280;19112;51.076;3.706;2023-03-04T08:16:22;102620.88;;;8.58;64.18
32735;BME280;19112;51.076;3.706;2023-03-04T08:18:55;102652.38;;;8.59;65.00
32735;BME280;19112;51.076;3.706;2023-03-04T08:21:27;102688.13;;;8.59;65.30
32735;BME280;19112;51.076;3.706;2023-03-04T08:24:00;102620.25;;;8.25;66.09
32735;BME280;19112;51.076;3.706;2023-03-04T08:26:32;102689.50;;;8.79;65.66
32735;BME280;19112;51.076;3.706;2023-03-04T08:29:02;102604.78;;;8.28;64.90
32735;BME280;19112;51.076;3.706;2023-03-04T08:31:28;102699.75;;;8.87;65.37
32735;BME280;19112;51.076;3.706;2023-03-04T08:33:54;102531.00;;;8.21;64.88
32735;BME280;19112;51.076;3.706;2023-03-04T08:36:21;102563.03;;;8.42;64.82
32735;BME280;19112;51.076;3.706;2023-03-04T08:38:47;102685.00;;;9.14;65.25
32735;BME280;19112;51.076;3.706;2023-03-04T08:41:13;102166.09;;;6.23;65.09
32735;BME280;19112;51.076;3.706;2023-03-04T08:43:40;102530.94;;;8.32;64.80
32735;BME280;19112;51.076;3.706;2023-03-04T08:46:06;102610.28;;;8.81;65.42
32735;BME280;19112;51.076;3.706;2023-03-04T08:48:34;102647.53;;;9.15;64.91
32735;BME280;19112;51.076;3.706;2023-03-04T08:51:08;102686.47;;;9.23;65.39
32735;BME280;19112;51.076;3.706;2023-03-04T08:53:34;102480.78;;;8.38;64.63
32735;BME280;19112;51.076;3.706;2023-03-04T08:56:00;102683.56;;;9.58;64.72
32735;BME280;19112;51.076;3.706;2023-03-04T08:58:26;102682.91;;;9.87;64.16
32735;BME280;19112;51.076;3.706;2023-03-04T09:00:51;102684.41;;;9.70;64.04
32735;BME280;19112;51.076;3.706;2023-03-04T09:03:18;102559.50;;;8.79;64.79
32735;BME280;19112;51.076;3.706;2023-03-04T09:05:47;102616.78;;;9.26;64.54
32735;BME280;19112;51.076;3.706;2023-03-04T09:08:16;102687.94;;;9.70;64.27
32735;BME280;19112;51.076;3.706;2023-03-04T09:10:44;102649.28;;;9.41;64.89
32735;BME280;19112;51.076;3.706;2023-03-04T09:13:11;102662.56;;;9.18;65.64
32735;BME280;19112;51.076;3.706;2023-03-04T09:15:45;102647.56;;;9.29;65.71
32735;BME280;19112;51.076;3.706;2023-03-04T09:18:11;102689.44;;;9.54;65.63
32735;BME280;19112;51.076;3.706;2023-03-04T09:20:39;102553.47;;;8.80;65.88
32735;BME280;19112;51.076;3.706;2023-03-04T09:23:05;102682.81;;;9.59;66.42
32735;BME280;19112;51.076;3.706;2023-03-04T09:25:31;102670.59;;;9.59;66.46
32735;BME280;19112;51.076;3.706;2023-03-04T09:27:57;102681.38;;;9.51;66.80
32735;BME280;19112;51.076;3.706;2023-03-04T09:30:24;102682.81;;;9.59;67.74
32735;BME280;19112;51.076;3.706;2023-03-04T09:32:50;102523.56;;;9.03;67.30
32735;BME280;19112;51.076;3.706;2023-03-04T09:35:16;102523.09;;;9.22;66.38
32735;BME280;19112;51.076;3.706;2023-03-04T09:37:42;102408.81;;;8.98;65.35
32735;BME280;19112;51.076;3.706;2023-03-04T09:40:16;102687.97;;;10.80;64.68
32735;BME280;19112;51.076;3.706;2023-03-04T09:42:51;102501.06;;;9.47;64.35
32735;BME280;19112;51.076;3.706;2023-03-04T09:45:22;102660.19;;;9.74;65.50
32735;BME280;19112;51.076;3.706;2023-03-04T09:47:52;102539.97;;;8.74;66.99
32735;BME280;19112;51.076;3.706;2023-03-04T09:50:19;102526.00;;;8.49;67.72
32735;BME280;19112;51.076;3.706;2023-03-04T09:53:05;102678.66;;;9.62;67.62
32735;BME280;19112;51.076;3.706;2023-03-04T09:55:44;102599.47;;;9.28;66.81
32735;BME280;19112;51.076;3.706;2023-03-04T10:01:37;102677.72;;;10.15;66.21
32735;BME280;19112;51.076;3.706;2023-03-04T10:06:43;102549.28;;;9.22;66.19
32735;BME280;19112;51.076;3.706;2023-03-04T10:09:20;102668.53;;;9.95;66.50
32735;BME280;19112;51.076;3.706;2023-03-04T10:12:02;102577.81;;;9.44;66.59
32735;BME280;19112;51.076;3.706;2023-03-04T10:14:39;102514.78;;;9.16;66.50
32735;BME280;19112;51.076;3.706;2023-03-04T10:17:18;102684.81;;;10.29;65.66
32735;BME280;19112;51.076;3.706;2023-03-04T10:20:17;102673.50;;;10.58;64.80
32735;BME280;19112;51.076;3.706;2023-03-04T10:22:47;102565.97;;;9.77;64.90
32735;BME280;19112;51.076;3.706;2023-03-04T10:25:22;102458.13;;;9.31;64.49
32735;BME280;19112;51.076;3.706;2023-03-04T10:28:27;102652.44;;;10.43;63.91
32735;BME280;19112;51.076;3.706;2023-03-04T10:31:36;102678.31;;;10.37;64.43
32735;BME280;19112;51.076;3.706;2023-03-04T10:34:21;102464.22;;;9.04;65.10
32735;BME280;19112;51.076;3.706;2023-03-04T10:37:07;102532.56;;;9.75;64.37
32735;BME280;19112;51.076;3.706;2023-03-04T10:39:41;102667.78;;;10.51;64.53
32735;BME280;19112;51.076;3.706;2023-03-04T10:44:59;102632.66;;;10.63;63.44
32735;BME280;19112;51.076;3.706;2023-03-04T10:47:32;102499.25;;;9.87;63.53
32735;BME280;19112;51.076;3.706;2023-03-04T10:50:05;102673.16;;;11.10;63.08
32735;BME280;19112;51.076;3.706;2023-03-04T10:52:48;102641.16;;;11.17;62.02
32735;BME280;19112;51.076;3.706;2023-03-04T10:58:40;102625.31;;;10.16;62.82
32735;BME280;19112;51.076;3.706;2023-03-04T11:01:15;102665.19;;;10.37;63.66
32735;BME280;19112;51.076;3.706;2023-03-04T11:03:52;102373.28;;;8.48;64.50
32735;BME280;19112;51.076;3.706;2023-03-04T11:06:28;102514.72;;;9.28;64.68
32735;BME280;19112;51.076;3.706;2023-03-04T11:15:27;102452.00;;;9.31;64.45
32735;BME280;19112;51.076;3.706;2023-03-04T11:18:02;102655.69;;;10.39;64.40
32735;BME280;19112;51.076;3.706;2023-03-04T11:20:48;102647.84;;;10.82;63.04
32735;BME280;19112;51.076;3.706;2023-03-04T11:26:42;102579.00;;;10.88;60.90
32735;BME280;19112;51.076;3.706;2023-03-04T11:29:44;102625.28;;;11.60;60.26
32735;BME280;19112;51.076;3.706;2023-03-04T11:38:20;102511.38;;;10.41;59.59
32735;BME280;19112;51.076;3.706;2023-03-04T11:40:58;102552.09;;;10.34;59.59
32735;BME280;19112;51.076;3.706;2023-03-04T11:43:43;102619.41;;;11.05;59.24
32735;BME280;19112;51.076;3.706;2023-03-04T11:46:53;102608.44;;;10.97;58.96
32735;BME280;19112;51.076;3.706;2023-03-04T11:50:05;102603.31;;;11.13;58.86
32735;BME280;19112;51.076;3.706;2023-03-04T11:53:03;102599.09;;;11.17;59.02
32735;BME280;19112;51.076;3.706;2023-03-04T11:56:30;102585.13;;;11.33;58.45
32735;BME280;19112;51.076;3.706;2023-03-04T12:02:32;102556.78;;;10.83;59.50
32735;BME280;19112;51.076;3.706;2023-03-04T12:24:40;102568.47;;;10.88;60.65
32735;BME280;19112;51.076;3.706;2023-03-04T12:31:13;102350.28;;;10.11;60.11
32735;BME280;19112;51.076;3.706;2023-03-04T12:50:23;102539.19;;;11.26;60.57
32735;BME280;19112;51.076;3.706;2023-03-04T12:57:26;102540.34;;;11.31;62.71
32735;BME280;19112;51.076;3.706;2023-03-04T13:10:27;102530.41;;;11.11;62.71
32735;BME280;19112;51.076;3.706;2023-03-04T13:13:40;102367.38;;;10.63;62.00
32735;BME280;19112;51.076;3.706;2023-03-04T13:16:49;102526.28;;;11.45;62.07
32735;BME280;19112;51.076;3.706;2023-03-04T13:25:02;102510.13;;;11.08;63.04
32735;BME280;19112;51.076;3.706;2023-03-04T13:35:57;102431.69;;;10.70;63.09
32735;BME280;19112;51.076;3.706;2023-03-04T13:41:23;102500.53;;;10.94;63.90
32735;BME280;19112;51.076;3.706;2023-03-04T13:44:01;102452.88;;;10.73;63.67
32735;BME280;19112;51.076;3.706;2023-03-04T13:46:38;102398.06;;;10.64;63.31
32735;BME280;19112;51.076;3.706;2023-03-04T13:49:15;102491.22;;;11.30;62.86
32735;BME280;19112;51.076;3.706;2023-03-04T13:51:43;102383.19;;;10.34;63.24
32735;BME280;19112;51.076;3.706;2023-03-04T13:54:46;102463.19;;;10.99;63.27
32735;BME280;19112;51.076;3.706;2023-03-04T13:57:20;102495.97;;;11.06;63.80
32735;BME280;19112;51.076;3.706;2023-03-04T14:00:01;102294.47;;;9.98;63.87
32735;BME280;19112;51.076;3.706;2023-03-04T14:02:33;102489.25;;;10.96;63.81
32735;BME280;19112;51.076;3.706;2023-03-04T14:05:01;102492.88;;;11.44;63.58
32735;BME280;19112;51.076;3.706;2023-03-04T14:07:39;102307.28;;;10.53;63.11
32735;BME280;19112;51.076;3.706;2023-03-04T14:10:32;102391.25;;;10.97;62.96
32735;BME280;19112;51.076;3.706;2023-03-04T14:13:00;102382.50;;;10.82;63.37
32735;BME280;19112;51.076;3.706;2023-03-04T14:15:30;102479.91;;;11.16;63.94
32735;BME280;19112;51.076;3.706;2023-03-04T14:18:00;102479.91;;;11.47;63.59
32735;BME280;19112;51.076;3.706;2023-03-04T14:20:32;102471.97;;;11.62;63.62
32735;BME280;19112;51.076;3.706;2023-03-04T14:23:02;102396.47;;;11.45;62.72
32735;BME280;19112;51.076;3.706;2023-03-04T14:25:33;102408.16;;;11.66;62.15
32735;BME280;19112;51.076;3.706;2023-03-04T14:28:11;102345.59;;;11.44;61.28
32735;BME280;19112;51.076;3.706;2023-03-04T14:30:40;102488.22;;;12.02;60.73
32735;BME280;19112;51.076;3.706;2023-03-04T14:33:12;102397.47;;;11.63;60.63
32735;BME280;19112;51.076;3.706;2023-03-04T14:35:39;102461.59;;;11.65;61.56
32735;BME280;19112;51.076;3.706;2023-03-04T14:38:34;102461.13;;;11.56;62.08
32735;BME280;19112;51.076;3.706;2023-03-04T14:41:15;102452.34;;;11.72;62.09
32735;BME280;19112;51.076;3.706;2023-03-04T14:46:21;102431.34;;;11.41;62.90
32735;BME280;19112;51.076;3.706;2023-03-04T14:48:52;102447.16;;;11.73;62.51
32735;BME280;19112;51.076;3.706;2023-03-04T14:54:02;102450.94;;;11.62;62.98
32735;BME280;19112;51.076;3.706;2023-03-04T14:56:30;102445.19;;;11.07;65.04
32735;BME280;19112;51.076;3.706;2023-03-04T14:58:58;102199.59;;;9.47;66.47
32735;BME280;19112;51.076;3.706;2023-03-04T15:01:34;102410.16;;;10.61;67.45
32735;BME280;19112;51.076;3.706;2023-03-04T15:04:08;102336.69;;;9.88;68.97
32735;BME280;19112;51.076;3.706;2023-03-04T15:06:46;102250.81;;;9.27;69.85
32735;BME280;19112;51.076;3.706;2023-03-04T15:09:23;102452.69;;;10.26;70.61
32735;BME280;19112;51.076;3.706;2023-03-04T15:12:11;102361.84;;;9.85;70.98
32735;BME280;19112;51.076;3.706;2023-03-04T15:14:52;102436.28;;;10.59;70.39